KLOR/LOR METAR and TAF weather

Enter ICAO airport designator
Station Type Date Time Source
KLOR METAR 2020/01/17 13:58 UTC NOAA

KLOR 171358Z AUTO 04004KT 10SM OVC110 13/02 A3045 RMK AO2 SLP294 T01270024


Station Type Date Time Source
KLOR Decoded METAR 2020/01/17 13:58 UTC NOAA

Fort Rucker, Lowe Army Heliport, AL, United States (KLOR) 31-21-32N 085-44-54W 93M
Jan 17, 2020 - 08:58 AM EST / 2020.01.17 1358 UTC
Wind: from the NE (040 degrees) at 5 MPH (4 KT):0
Visibility: 10 mile(s):0
Sky conditions: overcast
Temperature: 54.9 F (12.7 C)
Dew Point: 36.3 F (2.4 C)
Relative Humidity: 49%
Pressure (altimeter): 30.45 in. Hg (1031 hPa)
ob: KLOR 171358Z AUTO 04004KT 10SM OVC110 13/02 A3045 RMK AO2 SLP294 T01270024
cycle: 14

Station Type Date Time Source
KLOR TAF UTC NOAA

Error!

Example: see airport list